TAF KPSM
KPSM 270540Z 2706/2806 27013G22KT 4SM -SNRA BR OVC012 FM270800 28014G25KT P6SM OVC030 FM271000 28015G25KT P6SM BKN040 FM280200 28011KT P6SM FEW250=
METAR KPSM
WC KPSM
WS KPSM
WV KPSM